Airfield :







YOU CAN JOIN US ON...

 
LOGIN :

Register | Disclaimer

   EN    FR    IT 

 









Legend :    VFR   Marginal VFR   IFR   Intensive IFR   Very Intensive IFR
Visi :
Ceiling :
>= 8 km
>= 3000ft
5 to 8 km
1000 to 3000 ft
1500m to 5 km
500 to 1000 ft
800 to 1500m
200 to 500 ft
< 800m
< 200 ft
Symbols :   Thunderstorms  Fog  Heavy snow  Heavy precipitations  Wind > 20 kt







- Airport Elevation : 403 ft
- IATA code : YKG


CYAS - Kangirsuk

CURRENT METAR :
  • 171800Z 36015G24KT 15SM BKN034 BKN130 14/06 A2951 RMK SC6AC1 SLP999 DENSITY ALT 800FT

EXPIRED METARs :
  • 171700Z 01019G31KT 15SM BKN026 BKN140 12/06 A2951 RMK SC6AC1 SLP000 DENSITY ALT 600FT
  • 171600Z 01018G26KT 15SM BKN019 BKN059 11/07 A2949 RMK SC6SC1 SLP995 DENSITY ALT 500FT

TAF AMD TAF CYAS
Valid from the 17 at 14:00 until the 17 at 21:00 UTC


171406Z 1714/1721 01022G34KT P6SM -RA SCT015 OVC030
TEMPO 1714/1717 5SM -RA BR SCT008 BKN015 OVC030
FM171700 01022G34KT P6SM SCT025 BKN100 RMK NXT FCST WILL BE ISSUED AT 181345Z
CZUL FIR / North America



MET'MAP, your aeronautical weather chart ! - Copyright ORBIFLY December 2007 - Disclaimer

ORBIFLY MET'MAP TEAM :

Programming & Development : Alexandra Zaïnal
Concept & Development : Baudouin d'Aumeries
Co-Development & Prog : Marc-Olivier Méhu
Technical & hardware support : Manuel Goepfert

Contact : metmap@orbifly.com




SOURCES & CREDITS :

   NOAA